createdAt,value
2019-02-15T00:00:18.118Z,90.10
2019-02-15T00:02:47.010Z,90.10
2019-02-15T00:05:15.901Z,90.10
2019-02-15T00:07:59.436Z,90.10
2019-02-15T00:10:28.302Z,90.10
2019-02-15T00:12:57.218Z,90.10
2019-02-15T00:15:26.109Z,90.20
2019-02-15T00:17:56.639Z,90.20
2019-02-15T00:20:43.348Z,90.30
2019-02-15T00:23:12.242Z,90.30
2019-02-15T00:25:41.130Z,90.30
2019-02-15T00:28:11.125Z,90.30
2019-02-15T00:30:40.038Z,90.30
2019-02-15T00:33:08.929Z,90.40
2019-02-15T00:35:37.820Z,90.40
2019-02-15T00:38:06.712Z,90.50
2019-02-15T00:40:35.602Z,90.50
2019-02-15T00:43:04.595Z,90.50
2019-02-15T00:45:37.024Z,90.50
2019-02-15T00:48:09.195Z,90.50
2019-02-15T00:50:39.462Z,90.50
2019-02-15T00:53:15.828Z,90.50
2019-02-15T00:56:02.538Z,90.60
2019-02-15T00:58:33.039Z,90.60
2019-02-15T01:01:09.229Z,90.60
2019-02-15T01:03:56.021Z,90.60
2019-02-15T01:06:29.211Z,90.60
2019-02-15T01:08:59.737Z,90.60
2019-02-15T01:11:33.235Z,90.70
2019-02-15T01:14:02.151Z,90.60
2019-02-15T01:16:31.021Z,90.70
2019-02-15T01:18:59.939Z,90.70
2019-02-15T01:21:28.825Z,90.70
2019-02-15T01:23:57.716Z,90.70
2019-02-15T01:26:31.010Z,90.80
2019-02-15T01:29:06.617Z,90.80
2019-02-15T01:31:42.825Z,90.90
2019-02-15T01:34:30.042Z,90.90
2019-02-15T01:37:00.548Z,90.90
2019-02-15T01:39:33.739Z,90.90
2019-02-15T01:42:10.335Z,90.90
2019-02-15T01:44:40.875Z,90.90
2019-02-15T01:47:11.426Z,90.90
2019-02-15T01:49:40.289Z,90.80
2019-02-15T01:52:09.279Z,90.80
2019-02-15T01:54:38.170Z,90.90
2019-02-15T01:57:07.066Z,90.90
2019-02-15T01:59:36.057Z,91.00
2019-02-15T02:02:04.946Z,91.00
2019-02-15T02:04:33.838Z,91.00
2019-02-15T02:07:04.572Z,91.10
2019-02-15T02:09:33.257Z,91.10
2019-02-15T02:12:02.148Z,91.10
2019-02-15T02:14:31.039Z,91.10
2019-02-15T02:16:59.932Z,91.10
2019-02-15T02:19:28.822Z,91.20
2019-02-15T02:21:57.716Z,91.20
2019-02-15T02:24:26.604Z,91.20
2019-02-15T02:26:57.335Z,91.20
2019-02-15T02:29:26.230Z,91.20
2019-02-15T02:31:55.120Z,91.30
2019-02-15T02:34:24.012Z,91.30
2019-02-15T02:36:54.455Z,91.30
2019-02-15T02:39:23.640Z,91.20
2019-02-15T02:41:52.540Z,91.30
2019-02-15T02:44:21.420Z,91.30
2019-02-15T02:46:50.284Z,91.30
2019-02-15T02:49:19.202Z,91.30
2019-02-15T02:51:48.076Z,91.30
2019-02-15T02:54:16.954Z,91.30
2019-02-15T02:56:45.856Z,91.30
2019-02-15T02:59:14.767Z,91.30
2019-02-15T03:01:43.658Z,91.40
2019-02-15T03:04:12.550Z,91.40
2019-02-15T03:06:41.441Z,91.40
2019-02-15T03:09:11.765Z,91.40
2019-02-15T03:11:40.658Z,91.40
2019-02-15T03:14:11.867Z,91.40
2019-02-15T03:16:40.105Z,91.40
2019-02-15T03:19:08.971Z,91.50
2019-02-15T03:21:37.859Z,91.50
2019-02-15T03:24:06.754Z,91.60
2019-02-15T03:26:35.642Z,91.60
2019-02-15T03:29:04.534Z,91.60
2019-02-15T03:31:33.426Z,91.60
2019-02-15T03:34:02.300Z,91.60
2019-02-15T03:36:32.844Z,91.60
2019-02-15T03:39:12.187Z,91.70
2019-02-15T03:41:41.073Z,91.70
2019-02-15T03:44:21.143Z,91.70
2019-02-15T03:46:40.493Z,91.70
2019-02-15T03:49:09.362Z,91.70
2019-02-15T03:51:53.532Z,91.70
2019-02-15T03:54:22.423Z,91.70
2019-02-15T03:56:51.315Z,91.70
2019-02-15T03:59:20.204Z,91.80
2019-02-15T04:01:49.097Z,91.70
2019-02-15T04:04:17.988Z,91.70
2019-02-15T04:06:46.881Z,91.80
2019-02-15T04:09:15.772Z,91.80
2019-02-15T04:11:45.696Z,91.80
2019-02-15T04:14:14.577Z,91.80
2019-02-15T04:16:43.438Z,91.90
2019-02-15T04:19:12.361Z,91.80
2019-02-15T04:21:41.225Z,91.80
2019-02-15T04:24:10.115Z,91.90
2019-02-15T04:26:39.032Z,91.90
2019-02-15T04:29:08.028Z,91.90
2019-02-15T04:31:36.937Z,91.90
2019-02-15T04:34:05.808Z,91.90
2019-02-15T04:36:34.801Z,92.00
2019-02-15T04:39:05.003Z,92.10
2019-02-15T04:41:34.021Z,92.10
2019-02-15T04:44:02.909Z,92.00
2019-02-15T04:46:31.800Z,92.10
2019-02-15T04:49:00.796Z,92.10
2019-02-15T04:51:29.684Z,92.00
2019-02-15T04:53:58.576Z,92.00
2019-02-15T04:56:27.466Z,92.00
2019-02-15T04:58:56.372Z,92.00
2019-02-15T05:01:25.253Z,92.40
2019-02-15T05:03:54.141Z,92.10
2019-02-15T05:06:23.008Z,92.10
2019-02-15T05:08:51.922Z,92.10
2019-02-15T05:11:20.816Z,92.10
2019-02-15T05:13:49.705Z,92.10
2019-02-15T05:16:18.596Z,92.10
2019-02-15T05:18:47.493Z,92.10
2019-02-15T05:21:16.378Z,92.10
2019-02-15T05:23:45.379Z,92.10
2019-02-15T05:26:14.369Z,92.20
2019-02-15T05:28:43.359Z,92.20
2019-02-15T05:31:12.222Z,92.20
2019-02-15T05:33:41.243Z,92.20
2019-02-15T05:36:10.134Z,92.20
2019-02-15T05:38:41.121Z,92.20
2019-02-15T05:41:10.659Z,92.20
2019-02-15T05:43:39.572Z,92.20
2019-02-15T05:46:08.469Z,92.20
2019-02-15T05:48:37.431Z,92.20
2019-02-15T05:51:06.259Z,92.20
2019-02-15T05:53:35.241Z,92.20
2019-02-15T05:56:04.132Z,92.20
2019-02-15T05:58:33.023Z,92.20
2019-02-15T06:01:02.117Z,92.20
2019-02-15T06:03:31.042Z,92.20
2019-02-15T06:06:00.007Z,92.20
2019-02-15T06:08:30.832Z,92.30
2019-02-15T06:11:07.354Z,92.20
2019-02-15T06:13:29.926Z,92.20
2019-02-15T06:15:58.844Z,92.20
2019-02-15T06:18:27.735Z,92.20
2019-02-15T06:20:56.628Z,92.20
2019-02-15T06:23:25.519Z,92.20
2019-02-15T06:25:54.439Z,92.30
2019-02-15T06:28:23.267Z,92.30
2019-02-15T06:30:52.130Z,92.30
2019-02-15T06:33:21.008Z,92.40
2019-02-15T06:35:49.841Z,92.70
2019-02-15T06:38:18.709Z,92.30
2019-02-15T06:40:47.570Z,92.30
2019-02-15T06:43:16.428Z,92.40
2019-02-15T06:45:45.306Z,92.30
2019-02-15T06:48:14.161Z,92.30
2019-02-15T06:50:44.569Z,92.30
2019-02-15T06:53:13.433Z,92.30
2019-02-15T06:55:42.301Z,92.40
2019-02-15T06:58:11.127Z,92.40
2019-02-15T07:00:41.567Z,92.40
2019-02-15T07:03:17.986Z,92.40
2019-02-15T07:05:47.048Z,92.40
2019-02-15T07:08:16.106Z,92.70
2019-02-15T07:10:46.432Z,92.80
2019-02-15T07:13:46.555Z,92.40
2019-02-15T07:16:15.448Z,92.40
2019-02-15T07:18:44.316Z,92.30
2019-02-15T07:21:13.229Z,92.30
2019-02-15T07:23:42.221Z,92.30
2019-02-15T07:26:11.031Z,92.40
2019-02-15T07:28:39.895Z,92.40
2019-02-15T07:31:08.763Z,92.40
2019-02-15T07:33:37.611Z,92.40
2019-02-15T07:36:06.463Z,92.40
2019-02-15T07:38:35.335Z,92.40
2019-02-15T07:41:04.215Z,92.30
2019-02-15T07:43:33.043Z,92.40
2019-02-15T07:46:01.870Z,92.30
2019-02-15T07:48:30.747Z,92.30
2019-02-15T07:50:59.606Z,92.30
2019-02-15T07:53:28.435Z,92.40
2019-02-15T07:55:57.323Z,92.30
2019-02-15T07:58:26.142Z,92.30
2019-02-15T08:00:55.079Z,92.20
2019-02-15T08:03:24.048Z,92.20
2019-02-15T08:05:52.966Z,92.10
2019-02-15T08:08:21.854Z,92.10
2019-02-15T08:10:50.699Z,92.10
2019-02-15T08:13:19.557Z,92.00
2019-02-15T08:15:52.003Z,91.90
2019-02-15T08:18:18.891Z,91.80
2019-02-15T08:20:47.755Z,91.70
2019-02-15T08:23:16.638Z,91.90
2019-02-15T08:25:45.438Z,91.50
2019-02-15T08:28:14.305Z,91.40
2019-02-15T08:30:43.128Z,91.50
2019-02-15T08:33:11.986Z,90.90
2019-02-15T08:35:40.854Z,90.80
2019-02-15T08:38:09.677Z,90.60
2019-02-15T08:40:38.540Z,90.40
2019-02-15T08:43:07.404Z,90.20
2019-02-15T08:45:36.223Z,90.00
2019-02-15T08:48:05.085Z,89.60
2019-02-15T08:50:33.939Z,89.10
2019-02-15T08:53:02.783Z,88.80
2019-02-15T08:55:31.653Z,88.40
2019-02-15T08:58:00.511Z,88.00
2019-02-15T09:00:29.339Z,87.40
2019-02-15T09:02:58.196Z,86.90
2019-02-15T09:05:27.063Z,86.30
2019-02-15T09:07:55.896Z,85.80
2019-02-15T09:10:24.760Z,85.00
2019-02-15T09:12:53.624Z,84.30
2019-02-15T09:15:23.956Z,83.70
2019-02-15T09:17:52.815Z,83.10
2019-02-15T09:20:21.674Z,82.30
2019-02-15T09:22:50.499Z,81.50
2019-02-15T09:25:19.372Z,80.70
2019-02-15T09:27:52.812Z,80.00
2019-02-15T09:30:21.682Z,79.30
2019-02-15T09:32:50.578Z,78.30
2019-02-15T09:35:19.408Z,77.60
2019-02-15T09:37:48.254Z,77.10
2019-02-15T09:40:17.136Z,76.50
2019-02-15T09:42:45.971Z,76.10
2019-02-15T09:45:14.851Z,75.40
2019-02-15T09:47:43.716Z,74.80
2019-02-15T09:50:12.564Z,74.80
2019-02-15T09:52:41.410Z,74.80
2019-02-15T09:55:10.321Z,74.40
2019-02-15T09:57:39.122Z,73.90
2019-02-15T10:00:09.612Z,73.50
2019-02-15T10:02:38.475Z,73.40
2019-02-15T10:05:09.487Z,73.10
2019-02-15T10:07:38.375Z,72.80
2019-02-15T10:10:10.631Z,72.70
2019-02-15T10:12:39.556Z,72.40
2019-02-15T10:15:10.474Z,72.20
2019-02-15T10:17:39.348Z,71.80
2019-02-15T10:20:17.350Z,71.50
2019-02-15T10:22:46.280Z,71.20
2019-02-15T10:25:15.110Z,70.80
2019-02-15T10:27:49.886Z,70.40
2019-02-15T10:30:18.812Z,70.10
2019-02-15T10:32:47.622Z,70.00
2019-02-15T10:35:16.491Z,69.60
2019-02-15T10:37:45.348Z,69.10
2019-02-15T10:40:14.213Z,68.70
2019-02-15T10:42:43.076Z,68.20
2019-02-15T10:45:14.450Z,67.70
2019-02-15T10:47:43.275Z,67.40
2019-02-15T10:50:12.361Z,66.90
2019-02-15T10:52:41.227Z,66.50
2019-02-15T10:55:10.263Z,65.90
2019-02-15T10:57:39.119Z,65.90
2019-02-15T11:00:17.746Z,65.20
2019-02-15T11:02:46.591Z,64.40
2019-02-15T11:05:16.558Z,63.70
2019-02-15T11:07:45.382Z,63.40
2019-02-15T11:10:14.448Z,62.90
2019-02-15T11:12:43.336Z,62.40
2019-02-15T11:15:16.920Z,61.60
2019-02-15T11:17:45.786Z,60.90
2019-02-15T11:20:16.782Z,60.30
2019-02-15T11:22:45.679Z,60.00
2019-02-15T11:25:14.584Z,59.60
2019-02-15T11:27:43.421Z,58.30
2019-02-15T11:30:16.528Z,58.10
2019-02-15T11:32:45.390Z,57.60
2019-02-15T11:35:14.754Z,57.00
2019-02-15T11:37:43.626Z,56.70
2019-02-15T11:40:16.443Z,56.20
2019-02-15T11:42:45.318Z,55.80
2019-02-15T11:45:14.790Z,55.50
2019-02-15T11:47:43.623Z,55.20
2019-02-15T11:50:13.428Z,54.80
2019-02-15T11:52:42.305Z,54.70
2019-02-15T11:55:11.462Z,54.50
2019-02-15T11:57:40.323Z,54.20
2019-02-15T12:00:17.837Z,54.00
2019-02-15T12:02:46.476Z,53.80
2019-02-15T12:05:15.398Z,53.70
2019-02-15T12:07:44.219Z,54.20
2019-02-15T12:10:13.087Z,53.10
2019-02-15T12:12:41.952Z,52.90
2019-02-15T12:15:11.174Z,52.40
2019-02-15T12:17:40.051Z,52.20
2019-02-15T12:20:11.101Z,52.00
2019-02-15T12:22:39.935Z,52.00
2019-02-15T12:25:09.305Z,51.90
2019-02-15T12:27:44.290Z,51.70
2019-02-15T12:30:14.659Z,51.40
2019-02-15T12:32:43.537Z,51.10
2019-02-15T12:35:12.363Z,51.00
2019-02-15T12:37:41.239Z,50.60
2019-02-15T12:40:11.606Z,50.20
2019-02-15T12:42:40.452Z,50.00
2019-02-15T12:45:12.252Z,50.10
2019-02-15T12:47:41.127Z,49.70
2019-02-15T12:50:12.831Z,49.40
2019-02-15T12:52:41.695Z,49.40
2019-02-15T12:55:10.779Z,49.30
2019-02-15T12:57:39.606Z,49.00
2019-02-15T13:00:16.672Z,48.60
2019-02-15T13:02:45.546Z,48.60
2019-02-15T13:05:14.979Z,48.60
2019-02-15T13:07:43.848Z,48.50
2019-02-15T13:10:14.974Z,48.70
2019-02-15T13:12:43.807Z,48.50
2019-02-15T13:15:12.866Z,48.00
2019-02-15T13:17:41.740Z,48.00
2019-02-15T13:20:11.767Z,47.70
2019-02-15T13:22:40.626Z,47.40
2019-02-15T13:25:09.466Z,47.40
2019-02-15T13:27:38.295Z,47.10
2019-02-15T13:30:15.291Z,46.70
2019-02-15T13:32:44.159Z,46.60
2019-02-15T13:35:22.407Z,46.60
2019-02-15T13:37:51.274Z,46.50
2019-02-15T13:40:20.109Z,46.40
2019-02-15T13:42:48.967Z,46.30
2019-02-15T13:45:17.828Z,46.40
2019-02-15T13:47:46.659Z,46.20
2019-02-15T13:50:16.420Z,45.80
2019-02-15T13:52:45.291Z,45.20
2019-02-15T13:55:14.111Z,45.10
2019-02-15T13:57:42.974Z,44.90
2019-02-15T14:00:13.441Z,45.00
2019-02-15T14:02:42.282Z,45.00
2019-02-15T14:05:12.242Z,45.00
2019-02-15T14:07:41.103Z,44.80
2019-02-15T14:10:14.519Z,44.50
2019-02-15T14:12:43.392Z,44.40
2019-02-15T14:15:13.143Z,44.00
2019-02-15T14:17:46.357Z,43.80
2019-02-15T14:20:13.996Z,43.70
2019-02-15T14:22:42.834Z,43.70
2019-02-15T14:25:12.671Z,43.60
2019-02-15T14:27:41.564Z,43.70
2019-02-15T14:30:12.863Z,43.70
2019-02-15T14:32:41.841Z,44.00
2019-02-15T14:35:12.663Z,43.90
2019-02-15T14:37:41.501Z,44.00
2019-02-15T14:40:11.873Z,44.10
2019-02-15T14:42:40.726Z,44.00
2019-02-15T14:45:11.350Z,44.10
2019-02-15T14:47:40.211Z,44.10
2019-02-15T14:50:10.077Z,44.10
2019-02-15T14:52:38.907Z,44.10
2019-02-15T14:55:09.363Z,44.10
2019-02-15T14:57:38.235Z,44.10
2019-02-15T15:00:12.767Z,44.10
2019-02-15T15:02:41.785Z,44.20
2019-02-15T15:05:13.021Z,44.60
2019-02-15T15:07:41.839Z,44.90
2019-02-15T15:10:11.507Z,45.20
2019-02-15T15:12:40.332Z,46.00
2019-02-15T15:15:12.151Z,45.50
2019-02-15T15:17:41.036Z,45.80
2019-02-15T15:20:13.674Z,46.10
2019-02-15T15:22:43.751Z,46.50
2019-02-15T15:25:13.974Z,47.00
2019-02-15T15:27:42.847Z,47.30
2019-02-15T15:30:13.888Z,47.50
2019-02-15T15:32:42.779Z,47.60
2019-02-15T15:35:12.669Z,48.10
2019-02-15T15:37:41.541Z,48.50
2019-02-15T15:40:15.171Z,48.80
2019-02-15T15:42:44.122Z,49.50
2019-02-15T15:45:13.361Z,49.20
2019-02-15T15:48:01.503Z,49.30
2019-02-15T15:50:30.374Z,49.60
2019-02-15T15:52:59.215Z,50.10
2019-02-15T15:55:28.079Z,50.40
2019-02-15T15:57:56.947Z,51.00
2019-02-15T16:00:25.773Z,51.40
2019-02-15T16:02:54.644Z,51.90
2019-02-15T16:05:23.507Z,52.10
2019-02-15T16:07:52.345Z,52.40
2019-02-15T16:10:21.218Z,52.90
2019-02-15T16:12:50.075Z,52.90
2019-02-15T16:15:19.008Z,53.30
2019-02-15T16:17:47.901Z,53.60
2019-02-15T16:20:16.731Z,53.70
2019-02-15T16:22:45.597Z,54.80
2019-02-15T16:25:14.415Z,55.40
2019-02-15T16:27:43.694Z,55.40
2019-02-15T16:30:14.309Z,55.70
2019-02-15T16:32:43.174Z,56.00
2019-02-15T16:35:12.100Z,56.10
2019-02-15T16:37:40.967Z,56.50
2019-02-15T16:40:14.832Z,56.70
2019-02-15T16:42:43.707Z,56.70
2019-02-15T16:45:14.696Z,57.60
2019-02-15T16:47:43.605Z,57.90
2019-02-15T16:50:13.200Z,58.20
2019-02-15T16:52:42.108Z,58.50
2019-02-15T16:55:13.151Z,58.70
2019-02-15T16:57:41.525Z,59.00
2019-02-15T17:00:14.283Z,59.20
2019-02-15T17:02:43.154Z,59.40
2019-02-15T17:05:12.073Z,59.60
2019-02-15T17:07:40.926Z,59.90
2019-02-15T17:10:10.859Z,60.00
2019-02-15T17:12:39.718Z,60.40
2019-02-15T17:15:13.432Z,60.80
2019-02-15T17:17:42.291Z,61.50
2019-02-15T17:20:11.615Z,62.10
2019-02-15T17:22:40.781Z,61.20
2019-02-15T17:25:13.565Z,61.50
2019-02-15T17:27:42.426Z,61.70
2019-02-15T17:30:12.223Z,61.80
2019-02-15T17:32:41.020Z,62.10
2019-02-15T17:35:11.088Z,62.40
2019-02-15T17:37:39.918Z,62.50
2019-02-15T17:40:11.239Z,62.80
2019-02-15T17:42:40.067Z,63.20
2019-02-15T17:45:10.842Z,63.40
2019-02-15T17:47:39.762Z,63.80
2019-02-15T17:50:10.527Z,63.80
2019-02-15T17:52:39.456Z,64.20
2019-02-15T17:55:09.896Z,64.50
2019-02-15T17:57:38.819Z,64.60
2019-02-15T18:00:17.062Z,64.80
2019-02-15T18:02:45.976Z,65.10
2019-02-15T18:05:17.633Z,65.30
2019-02-15T18:07:50.306Z,65.70
2019-02-15T18:10:19.212Z,65.90
2019-02-15T18:12:48.096Z,66.20
2019-02-15T18:15:16.986Z,66.60
2019-02-15T18:17:45.878Z,66.80
2019-02-15T18:20:14.769Z,66.90
2019-02-15T18:22:43.572Z,67.20
2019-02-15T18:25:12.438Z,67.50
2019-02-15T18:27:41.266Z,67.70
2019-02-15T18:30:12.598Z,67.80
2019-02-15T18:32:41.434Z,68.10
2019-02-15T18:35:10.300Z,68.30
2019-02-15T18:37:39.127Z,68.40
2019-02-15T18:40:10.097Z,68.50
2019-02-15T18:42:38.964Z,68.70
2019-02-15T18:45:15.665Z,68.80
2019-02-15T18:47:44.556Z,69.00
2019-02-15T18:50:13.400Z,69.10
2019-02-15T18:52:42.219Z,69.20
2019-02-15T18:55:13.297Z,69.30
2019-02-15T18:57:42.117Z,69.20
2019-02-15T19:00:16.145Z,69.20
2019-02-15T19:02:47.842Z,69.50
2019-02-15T19:05:16.715Z,69.40
2019-02-15T19:07:45.530Z,69.30
2019-02-15T19:10:19.383Z,69.30
2019-02-15T19:12:48.203Z,69.30
2019-02-15T19:15:17.585Z,69.50
2019-02-15T19:17:46.499Z,69.50
2019-02-15T19:20:18.257Z,69.80
2019-02-15T19:22:47.141Z,69.90
2019-02-15T19:25:17.659Z,70.00
2019-02-15T19:27:46.478Z,70.10
2019-02-15T19:30:22.590Z,70.10
2019-02-15T19:32:51.429Z,70.30
2019-02-15T19:35:20.277Z,70.30
2019-02-15T19:37:49.141Z,70.30
2019-02-15T19:40:19.667Z,70.50
2019-02-15T19:42:50.675Z,70.70
2019-02-15T19:45:21.464Z,70.70
2019-02-15T19:47:50.405Z,70.70
2019-02-15T19:50:53.905Z,70.80
2019-02-15T19:53:23.001Z,70.70
2019-02-15T19:55:52.000Z,70.60
2019-02-15T19:58:20.988Z,70.40
2019-02-15T20:00:51.079Z,70.30
2019-02-15T20:03:21.204Z,70.20
2019-02-15T20:05:50.121Z,70.10
2019-02-15T20:08:19.113Z,69.90
2019-02-15T20:10:47.923Z,69.60
2019-02-15T20:13:16.795Z,69.50
2019-02-15T20:15:48.294Z,69.50
2019-02-15T20:18:17.129Z,69.60
2019-02-15T20:20:46.055Z,69.80
2019-02-15T20:23:15.176Z,69.60
2019-02-15T20:25:44.063Z,69.40
2019-02-15T20:28:14.359Z,69.30
2019-02-15T20:30:43.570Z,69.00
2019-02-15T20:33:12.596Z,69.00
2019-02-15T20:35:41.570Z,69.00
2019-02-15T20:38:10.447Z,69.10
2019-02-15T20:40:39.276Z,69.20
2019-02-15T20:43:08.143Z,69.30
2019-02-15T20:45:37.024Z,69.30
2019-02-15T20:48:11.556Z,69.50
2019-02-15T20:50:36.393Z,69.60
2019-02-15T20:53:11.651Z,70.00
2019-02-15T20:55:41.686Z,70.10
2019-02-15T20:58:10.564Z,70.30
2019-02-15T21:00:40.749Z,70.50
2019-02-15T21:03:09.631Z,70.80
2019-02-15T21:05:40.075Z,70.90
2019-02-15T21:08:09.004Z,71.20
2019-02-15T21:10:39.245Z,71.40
2019-02-15T21:13:08.667Z,71.50
2019-02-15T21:15:37.682Z,71.50
2019-02-15T21:18:08.071Z,70.90
2019-02-15T21:20:37.006Z,71.40
2019-02-15T21:23:05.980Z,71.30
2019-02-15T21:25:36.187Z,71.20
2019-02-15T21:28:07.593Z,71.30
2019-02-15T21:30:36.894Z,71.30
2019-02-15T21:33:05.998Z,71.30
2019-02-15T21:35:35.221Z,71.50
2019-02-15T21:38:05.718Z,71.50
2019-02-15T21:40:34.844Z,71.50
2019-02-15T21:43:03.678Z,71.50
2019-02-15T21:45:32.562Z,71.50
2019-02-15T21:48:01.438Z,71.60
2019-02-15T21:50:30.246Z,71.90
2019-02-15T21:52:59.297Z,71.90
2019-02-15T21:55:28.146Z,71.90
2019-02-15T21:58:01.583Z,71.90
2019-02-15T22:00:28.776Z,71.80
2019-02-15T22:02:57.836Z,71.80
2019-02-15T22:05:26.897Z,71.80
2019-02-15T22:07:55.768Z,71.80
2019-02-15T22:10:24.674Z,71.80
2019-02-15T22:12:53.502Z,72.20
2019-02-15T22:15:22.364Z,72.40
2019-02-15T22:17:51.227Z,72.60
2019-02-15T22:20:26.206Z,72.90
2019-02-15T22:22:50.567Z,73.10
2019-02-15T22:25:19.433Z,73.30
2019-02-15T22:27:48.267Z,73.60
2019-02-15T22:30:18.515Z,73.70
2019-02-15T22:32:47.377Z,74.00
2019-02-15T22:35:16.208Z,74.30
2019-02-15T22:37:45.077Z,74.60
2019-02-15T22:40:25.134Z,75.00
2019-02-15T22:42:54.016Z,75.20
2019-02-15T22:45:22.868Z,75.60
2019-02-15T22:47:51.696Z,75.90
2019-02-15T22:50:20.555Z,76.00
2019-02-15T22:52:49.428Z,76.40
2019-02-15T22:55:18.255Z,76.70
2019-02-15T22:57:47.121Z,76.90
2019-02-15T23:00:21.577Z,77.00
2019-02-15T23:02:50.547Z,77.30
2019-02-15T23:05:19.701Z,77.40
2019-02-15T23:07:48.637Z,77.50
2019-02-15T23:10:17.495Z,77.80
2019-02-15T23:12:46.363Z,78.10
2019-02-15T23:15:15.193Z,78.10
2019-02-15T23:17:44.051Z,78.40
2019-02-15T23:20:13.011Z,78.40
2019-02-15T23:22:41.843Z,78.70
2019-02-15T23:25:10.709Z,78.70
2019-02-15T23:27:39.566Z,79.00
2019-02-15T23:30:08.687Z,78.70
2019-02-15T23:32:37.559Z,79.40
2019-02-15T23:35:06.424Z,79.50
2019-02-15T23:37:35.243Z,79.80
2019-02-15T23:40:05.508Z,80.00
2019-02-15T23:42:34.371Z,80.10
2019-02-15T23:45:03.195Z,80.30
2019-02-15T23:47:32.075Z,80.10
2019-02-15T23:50:01.017Z,80.40
2019-02-15T23:52:31.601Z,80.60
2019-02-15T23:55:00.447Z,80.90
2019-02-15T23:57:29.303Z,81.10
2019-02-15T23:59:58.133Z,81.20
